sensor_id;sensor_type;location;lat;lon;timestamp;P1;durP1;ratioP1;P2;durP2;ratioP2
14681;SDS011;7429;52.498;13.480;2023-09-08T00:00:09;10.85;;;9.75;;
14681;SDS011;7429;52.498;13.480;2023-09-08T00:03:14;14.32;;;10.32;;
14681;SDS011;7429;52.498;13.480;2023-09-08T00:06:18;11.27;;;10.02;;
14681;SDS011;7429;52.498;13.480;2023-09-08T00:09:21;13.73;;;11.25;;
14681;SDS011;7429;52.498;13.480;2023-09-08T00:12:25;12.38;;;10.85;;
14681;SDS011;7429;52.498;13.480;2023-09-08T00:15:28;15.75;;;11.93;;
14681;SDS011;7429;52.498;13.480;2023-09-08T00:18:33;17.60;;;12.18;;
14681;SDS011;7429;52.498;13.480;2023-09-08T00:21:36;13.68;;;12.38;;
14681;SDS011;7429;52.498;13.480;2023-09-08T00:24:40;11.70;;;10.52;;
14681;SDS011;7429;52.498;13.480;2023-09-08T00:27:43;13.85;;;12.45;;
14681;SDS011;7429;52.498;13.480;2023-09-08T00:30:48;13.48;;;12.15;;
14681;SDS011;7429;52.498;13.480;2023-09-08T00:33:52;14.02;;;12.73;;
14681;SDS011;7429;52.498;13.480;2023-09-08T00:36:56;16.33;;;14.23;;
14681;SDS011;7429;52.498;13.480;2023-09-08T00:39:59;17.63;;;14.43;;
14681;SDS011;7429;52.498;13.480;2023-09-08T00:43:02;15.05;;;13.43;;
14681;SDS011;7429;52.498;13.480;2023-09-08T00:46:06;15.00;;;13.40;;
14681;SDS011;7429;52.498;13.480;2023-09-08T00:49:11;15.52;;;13.35;;
14681;SDS011;7429;52.498;13.480;2023-09-08T00:52:14;13.80;;;12.40;;
14681;SDS011;7429;52.498;13.480;2023-09-08T00:55:18;14.40;;;12.60;;
14681;SDS011;7429;52.498;13.480;2023-09-08T00:58:21;14.48;;;12.98;;
14681;SDS011;7429;52.498;13.480;2023-09-08T01:01:25;17.48;;;12.88;;
14681;SDS011;7429;52.498;13.480;2023-09-08T01:04:30;14.35;;;12.52;;
14681;SDS011;7429;52.498;13.480;2023-09-08T01:07:35;17.52;;;13.60;;
14681;SDS011;7429;52.498;13.480;2023-09-08T01:10:40;17.40;;;14.95;;
14681;SDS011;7429;52.498;13.480;2023-09-08T01:13:46;17.45;;;15.10;;
14681;SDS011;7429;52.498;13.480;2023-09-08T01:16:50;16.33;;;14.45;;
14681;SDS011;7429;52.498;13.480;2023-09-08T01:19:56;17.67;;;15.88;;
14681;SDS011;7429;52.498;13.480;2023-09-08T01:23:11;16.88;;;14.10;;
14681;SDS011;7429;52.498;13.480;2023-09-08T01:26:22;14.40;;;12.90;;
14681;SDS011;7429;52.498;13.480;2023-09-08T01:29:32;15.68;;;14.07;;
14681;SDS011;7429;52.498;13.480;2023-09-08T01:32:36;16.48;;;14.73;;
14681;SDS011;7429;52.498;13.480;2023-09-08T01:35:39;17.30;;;13.15;;
14681;SDS011;7429;52.498;13.480;2023-09-08T01:38:43;17.35;;;15.38;;
14681;SDS011;7429;52.498;13.480;2023-09-08T01:41:47;12.85;;;11.48;;
14681;SDS011;7429;52.498;13.480;2023-09-08T01:44:50;14.68;;;13.00;;
14681;SDS011;7429;52.498;13.480;2023-09-08T01:47:57;15.45;;;13.57;;
14681;SDS011;7429;52.498;13.480;2023-09-08T01:51:00;16.10;;;12.50;;
14681;SDS011;7429;52.498;13.480;2023-09-08T01:54:03;15.52;;;11.75;;
14681;SDS011;7429;52.498;13.480;2023-09-08T01:57:08;17.52;;;13.40;;
14681;SDS011;7429;52.498;13.480;2023-09-08T02:00:11;17.20;;;13.25;;
14681;SDS011;7429;52.498;13.480;2023-09-08T02:03:15;16.02;;;13.20;;
14681;SDS011;7429;52.498;13.480;2023-09-08T02:06:19;16.08;;;14.38;;
14681;SDS011;7429;52.498;13.480;2023-09-08T02:09:29;18.92;;;14.10;;
14681;SDS011;7429;52.498;13.480;2023-09-08T02:12:35;14.50;;;12.82;;
14681;SDS011;7429;52.498;13.480;2023-09-08T02:15:38;17.92;;;12.60;;
14681;SDS011;7429;52.498;13.480;2023-09-08T02:18:41;16.67;;;13.07;;
14681;SDS011;7429;52.498;13.480;2023-09-08T02:21:45;15.80;;;13.05;;
14681;SDS011;7429;52.498;13.480;2023-09-08T02:24:48;15.30;;;12.38;;
14681;SDS011;7429;52.498;13.480;2023-09-08T02:27:54;13.73;;;12.07;;
14681;SDS011;7429;52.498;13.480;2023-09-08T02:30:58;14.60;;;13.10;;
14681;SDS011;7429;52.498;13.480;2023-09-08T02:34:01;15.38;;;13.88;;
14681;SDS011;7429;52.498;13.480;2023-09-08T02:37:06;17.00;;;13.35;;
14681;SDS011;7429;52.498;13.480;2023-09-08T02:40:09;16.77;;;13.40;;
14681;SDS011;7429;52.498;13.480;2023-09-08T02:43:15;14.82;;;13.43;;
14681;SDS011;7429;52.498;13.480;2023-09-08T02:46:18;16.10;;;14.30;;
14681;SDS011;7429;52.498;13.480;2023-09-08T02:49:21;17.27;;;14.10;;
14681;SDS011;7429;52.498;13.480;2023-09-08T02:52:26;16.77;;;13.68;;
14681;SDS011;7429;52.498;13.480;2023-09-08T02:55:30;14.05;;;12.70;;
14681;SDS011;7429;52.498;13.480;2023-09-08T02:58:34;15.68;;;13.38;;
14681;SDS011;7429;52.498;13.480;2023-09-08T03:01:38;15.65;;;14.07;;
14681;SDS011;7429;52.498;13.480;2023-09-08T03:04:41;13.95;;;12.27;;
14681;SDS011;7429;52.498;13.480;2023-09-08T03:07:47;14.57;;;12.60;;
14681;SDS011;7429;52.498;13.480;2023-09-08T03:10:52;14.50;;;13.00;;
14681;SDS011;7429;52.498;13.480;2023-09-08T03:14:00;19.85;;;14.57;;
14681;SDS011;7429;52.498;13.480;2023-09-08T03:17:04;17.95;;;16.15;;
14681;SDS011;7429;52.498;13.480;2023-09-08T03:20:09;15.88;;;14.18;;
14681;SDS011;7429;52.498;13.480;2023-09-08T03:23:14;13.80;;;12.43;;
14681;SDS011;7429;52.498;13.480;2023-09-08T03:26:18;15.90;;;14.23;;
14681;SDS011;7429;52.498;13.480;2023-09-08T03:29:22;17.20;;;14.63;;
14681;SDS011;7429;52.498;13.480;2023-09-08T03:32:26;15.65;;;13.82;;
14681;SDS011;7429;52.498;13.480;2023-09-08T03:35:30;15.55;;;13.57;;
14681;SDS011;7429;52.498;13.480;2023-09-08T03:38:33;15.70;;;13.77;;
14681;SDS011;7429;52.498;13.480;2023-09-08T03:41:38;17.30;;;15.57;;
14681;SDS011;7429;52.498;13.480;2023-09-08T03:44:43;21.25;;;19.45;;
14681;SDS011;7429;52.498;13.480;2023-09-08T03:47:47;21.35;;;19.60;;
14681;SDS011;7429;52.498;13.480;2023-09-08T03:50:50;19.55;;;17.50;;
14681;SDS011;7429;52.498;13.480;2023-09-08T03:53:53;17.42;;;15.93;;
14681;SDS011;7429;52.498;13.480;2023-09-08T03:56:56;17.00;;;15.50;;
14681;SDS011;7429;52.498;13.480;2023-09-08T04:00:01;18.50;;;16.48;;
14681;SDS011;7429;52.498;13.480;2023-09-08T04:03:14;21.25;;;19.23;;
14681;SDS011;7429;52.498;13.480;2023-09-08T04:06:17;21.88;;;17.35;;
14681;SDS011;7429;52.498;13.480;2023-09-08T04:09:26;17.30;;;15.35;;
14681;SDS011;7429;52.498;13.480;2023-09-08T04:12:32;17.77;;;15.55;;
14681;SDS011;7429;52.498;13.480;2023-09-08T04:15:37;19.98;;;16.05;;
14681;SDS011;7429;52.498;13.480;2023-09-08T04:18:40;19.90;;;17.60;;
14681;SDS011;7429;52.498;13.480;2023-09-08T04:21:43;15.50;;;14.05;;
14681;SDS011;7429;52.498;13.480;2023-09-08T04:24:46;18.65;;;16.58;;
14681;SDS011;7429;52.498;13.480;2023-09-08T04:27:50;18.90;;;17.00;;
14681;SDS011;7429;52.498;13.480;2023-09-08T04:30:54;19.50;;;17.70;;
14681;SDS011;7429;52.498;13.480;2023-09-08T04:33:58;17.00;;;15.43;;
14681;SDS011;7429;52.498;13.480;2023-09-08T04:37:01;16.88;;;14.85;;
14681;SDS011;7429;52.498;13.480;2023-09-08T04:43:42;16.60;;;14.93;;
14681;SDS011;7429;52.498;13.480;2023-09-08T04:46:57;19.13;;;17.13;;
14681;SDS011;7429;52.498;13.480;2023-09-08T04:50:06;18.25;;;16.27;;
14681;SDS011;7429;52.498;13.480;2023-09-08T04:53:11;20.67;;;16.20;;
14681;SDS011;7429;52.498;13.480;2023-09-08T04:56:15;17.55;;;15.10;;
14681;SDS011;7429;52.498;13.480;2023-09-08T04:59:22;17.38;;;14.77;;
14681;SDS011;7429;52.498;13.480;2023-09-08T05:02:28;17.05;;;15.40;;
14681;SDS011;7429;52.498;13.480;2023-09-08T05:05:32;17.17;;;14.73;;
14681;SDS011;7429;52.498;13.480;2023-09-08T05:08:35;17.88;;;15.98;;
14681;SDS011;7429;52.498;13.480;2023-09-08T05:11:39;17.48;;;15.73;;
14681;SDS011;7429;52.498;13.480;2023-09-08T05:14:42;18.35;;;16.40;;
14681;SDS011;7429;52.498;13.480;2023-09-08T05:17:47;18.58;;;16.88;;
14681;SDS011;7429;52.498;13.480;2023-09-08T05:20:54;20.02;;;16.83;;
14681;SDS011;7429;52.498;13.480;2023-09-08T05:23:59;18.52;;;16.55;;
14681;SDS011;7429;52.498;13.480;2023-09-08T05:27:07;19.25;;;16.63;;
14681;SDS011;7429;52.498;13.480;2023-09-08T05:30:12;19.55;;;17.65;;
14681;SDS011;7429;52.498;13.480;2023-09-08T05:33:19;20.92;;;19.15;;
14681;SDS011;7429;52.498;13.480;2023-09-08T05:36:27;19.10;;;17.30;;
14681;SDS011;7429;52.498;13.480;2023-09-08T05:39:31;20.90;;;15.50;;
14681;SDS011;7429;52.498;13.480;2023-09-08T05:42:35;17.05;;;15.38;;
14681;SDS011;7429;52.498;13.480;2023-09-08T05:45:38;17.95;;;15.38;;
14681;SDS011;7429;52.498;13.480;2023-09-08T05:48:42;16.73;;;15.07;;
14681;SDS011;7429;52.498;13.480;2023-09-08T05:51:46;18.15;;;15.05;;
14681;SDS011;7429;52.498;13.480;2023-09-08T05:54:49;20.33;;;15.77;;
14681;SDS011;7429;52.498;13.480;2023-09-08T05:57:52;17.20;;;14.80;;
14681;SDS011;7429;52.498;13.480;2023-09-08T06:00:56;16.55;;;14.90;;
14681;SDS011;7429;52.498;13.480;2023-09-08T06:04:00;20.48;;;18.38;;
14681;SDS011;7429;52.498;13.480;2023-09-08T06:07:05;18.95;;;17.00;;
14681;SDS011;7429;52.498;13.480;2023-09-08T06:10:08;20.13;;;17.13;;
14681;SDS011;7429;52.498;13.480;2023-09-08T06:13:12;16.92;;;15.32;;
14681;SDS011;7429;52.498;13.480;2023-09-08T06:16:17;20.20;;;13.63;;
14681;SDS011;7429;52.498;13.480;2023-09-08T06:19:22;20.40;;;15.15;;
14681;SDS011;7429;52.498;13.480;2023-09-08T06:22:27;16.10;;;14.38;;
14681;SDS011;7429;52.498;13.480;2023-09-08T06:25:30;16.33;;;12.93;;
14681;SDS011;7429;52.498;13.480;2023-09-08T06:28:33;16.10;;;13.73;;
14681;SDS011;7429;52.498;13.480;2023-09-08T06:31:39;19.70;;;15.18;;
14681;SDS011;7429;52.498;13.480;2023-09-08T06:34:44;17.40;;;14.20;;
14681;SDS011;7429;52.498;13.480;2023-09-08T06:37:50;17.08;;;13.50;;
14681;SDS011;7429;52.498;13.480;2023-09-08T06:40:54;16.77;;;15.05;;
14681;SDS011;7429;52.498;13.480;2023-09-08T06:43:57;18.20;;;16.48;;
14681;SDS011;7429;52.498;13.480;2023-09-08T06:47:02;16.70;;;15.10;;
14681;SDS011;7429;52.498;13.480;2023-09-08T06:50:10;16.35;;;12.98;;
14681;SDS011;7429;52.498;13.480;2023-09-08T06:53:14;17.60;;;15.43;;
14681;SDS011;7429;52.498;13.480;2023-09-08T06:56:17;16.55;;;13.95;;
14681;SDS011;7429;52.498;13.480;2023-09-08T06:59:22;15.07;;;13.57;;
14681;SDS011;7429;52.498;13.480;2023-09-08T07:02:26;18.88;;;16.88;;
14681;SDS011;7429;52.498;13.480;2023-09-08T07:05:31;19.45;;;12.82;;
14681;SDS011;7429;52.498;13.480;2023-09-08T07:08:34;17.55;;;13.88;;
14681;SDS011;7429;52.498;13.480;2023-09-08T07:11:38;15.85;;;14.25;;
14681;SDS011;7429;52.498;13.480;2023-09-08T07:14:41;18.58;;;14.10;;
14681;SDS011;7429;52.498;13.480;2023-09-08T07:17:44;16.15;;;13.18;;
14681;SDS011;7429;52.498;13.480;2023-09-08T07:20:50;15.32;;;12.75;;
14681;SDS011;7429;52.498;13.480;2023-09-08T07:23:54;13.63;;;12.25;;
14681;SDS011;7429;52.498;13.480;2023-09-08T07:26:57;12.93;;;11.55;;
14681;SDS011;7429;52.498;13.480;2023-09-08T07:30:04;16.65;;;12.23;;
14681;SDS011;7429;52.498;13.480;2023-09-08T07:33:09;15.75;;;11.93;;
14681;SDS011;7429;52.498;13.480;2023-09-08T07:36:14;15.25;;;11.85;;
14681;SDS011;7429;52.498;13.480;2023-09-08T07:39:19;13.20;;;11.52;;
14681;SDS011;7429;52.498;13.480;2023-09-08T07:42:23;11.90;;;10.18;;
14681;SDS011;7429;52.498;13.480;2023-09-08T07:45:27;15.13;;;12.80;;
14681;SDS011;7429;52.498;13.480;2023-09-08T07:48:33;17.08;;;13.63;;
14681;SDS011;7429;52.498;13.480;2023-09-08T07:51:38;17.58;;;10.57;;
14681;SDS011;7429;52.498;13.480;2023-09-08T07:54:41;13.00;;;9.70;;
14681;SDS011;7429;52.498;13.480;2023-09-08T07:57:48;13.43;;;11.52;;
14681;SDS011;7429;52.498;13.480;2023-09-08T08:00:52;11.43;;;10.27;;
14681;SDS011;7429;52.498;13.480;2023-09-08T08:03:55;14.38;;;11.77;;
14681;SDS011;7429;52.498;13.480;2023-09-08T08:07:00;14.88;;;10.57;;
14681;SDS011;7429;52.498;13.480;2023-09-08T08:10:04;12.98;;;9.90;;
14681;SDS011;7429;52.498;13.480;2023-09-08T08:13:09;11.77;;;10.13;;
14681;SDS011;7429;52.498;13.480;2023-09-08T08:16:13;13.15;;;10.05;;
14681;SDS011;7429;52.498;13.480;2023-09-08T08:19:18;12.65;;;11.45;;
14681;SDS011;7429;52.498;13.480;2023-09-08T08:22:22;15.15;;;10.50;;
14681;SDS011;7429;52.498;13.480;2023-09-08T08:25:27;11.43;;;10.07;;
14681;SDS011;7429;52.498;13.480;2023-09-08T08:28:30;10.25;;;9.25;;
14681;SDS011;7429;52.498;13.480;2023-09-08T08:31:34;13.20;;;10.18;;
14681;SDS011;7429;52.498;13.480;2023-09-08T08:34:37;10.73;;;9.63;;
14681;SDS011;7429;52.498;13.480;2023-09-08T08:37:45;12.32;;;9.75;;
14681;SDS011;7429;52.498;13.480;2023-09-08T08:40:48;11.07;;;9.85;;
14681;SDS011;7429;52.498;13.480;2023-09-08T08:43:51;11.70;;;8.57;;
14681;SDS011;7429;52.498;13.480;2023-09-08T08:46:56;13.52;;;8.25;;
14681;SDS011;7429;52.498;13.480;2023-09-08T08:50:00;10.05;;;9.05;;
14681;SDS011;7429;52.498;13.480;2023-09-08T08:53:08;10.00;;;8.48;;
14681;SDS011;7429;52.498;13.480;2023-09-08T08:56:12;10.20;;;7.53;;
14681;SDS011;7429;52.498;13.480;2023-09-08T08:59:15;11.50;;;8.38;;
14681;SDS011;7429;52.498;13.480;2023-09-08T09:02:21;9.75;;;7.75;;
14681;SDS011;7429;52.498;13.480;2023-09-08T09:05:28;10.13;;;8.30;;
14681;SDS011;7429;52.498;13.480;2023-09-08T09:08:37;13.43;;;8.10;;
14681;SDS011;7429;52.498;13.480;2023-09-08T09:11:43;11.00;;;7.88;;
14681;SDS011;7429;52.498;13.480;2023-09-08T09:14:47;7.68;;;6.88;;
14681;SDS011;7429;52.498;13.480;2023-09-08T09:18:03;11.02;;;7.43;;
14681;SDS011;7429;52.498;13.480;2023-09-08T09:21:13;8.80;;;7.43;;
14681;SDS011;7429;52.498;13.480;2023-09-08T09:24:28;8.95;;;7.55;;
14681;SDS011;7429;52.498;13.480;2023-09-08T09:27:35;8.18;;;7.22;;
14681;SDS011;7429;52.498;13.480;2023-09-08T09:30:46;13.00;;;7.50;;
14681;SDS011;7429;52.498;13.480;2023-09-08T09:34:03;8.45;;;7.53;;
14681;SDS011;7429;52.498;13.480;2023-09-08T09:37:10;9.65;;;7.28;;
14681;SDS011;7429;52.498;13.480;2023-09-08T09:40:22;11.05;;;8.15;;
14681;SDS011;7429;52.498;13.480;2023-09-08T09:43:36;9.25;;;7.85;;
14681;SDS011;7429;52.498;13.480;2023-09-08T09:46:45;8.13;;;7.30;;
14681;SDS011;7429;52.498;13.480;2023-09-08T09:49:56;7.43;;;6.25;;
14681;SDS011;7429;52.498;13.480;2023-09-08T09:53:07;11.18;;;6.28;;
14681;SDS011;7429;52.498;13.480;2023-09-08T09:56:14;10.70;;;7.47;;
14681;SDS011;7429;52.498;13.480;2023-09-08T09:59:25;7.28;;;6.00;;
14681;SDS011;7429;52.498;13.480;2023-09-08T10:02:34;8.18;;;6.35;;
14681;SDS011;7429;52.498;13.480;2023-09-08T10:05:40;11.43;;;6.63;;
14681;SDS011;7429;52.498;13.480;2023-09-08T10:08:46;8.23;;;7.43;;
14681;SDS011;7429;52.498;13.480;2023-09-08T10:11:52;7.70;;;6.70;;
14681;SDS011;7429;52.498;13.480;2023-09-08T10:19:05;10.85;;;6.75;;
14681;SDS011;7429;52.498;13.480;2023-09-08T10:22:23;8.70;;;6.60;;
14681;SDS011;7429;52.498;13.480;2023-09-08T10:25:37;7.88;;;6.40;;
14681;SDS011;7429;52.498;13.480;2023-09-08T10:28:48;9.93;;;6.13;;
14681;SDS011;7429;52.498;13.480;2023-09-08T10:31:56;6.75;;;5.95;;
14681;SDS011;7429;52.498;13.480;2023-09-08T10:35:05;8.88;;;6.43;;
14681;SDS011;7429;52.498;13.480;2023-09-08T10:38:21;9.02;;;5.30;;
14681;SDS011;7429;52.498;13.480;2023-09-08T10:41:26;8.48;;;5.20;;
14681;SDS011;7429;52.498;13.480;2023-09-08T10:44:34;7.53;;;5.93;;
14681;SDS011;7429;52.498;13.480;2023-09-08T10:47:41;6.47;;;5.57;;
14681;SDS011;7429;52.498;13.480;2023-09-08T10:50:59;8.93;;;5.72;;
14681;SDS011;7429;52.498;13.480;2023-09-08T10:54:02;9.40;;;5.43;;
14681;SDS011;7429;52.498;13.480;2023-09-08T10:57:12;8.77;;;5.45;;
14681;SDS011;7429;52.498;13.480;2023-09-08T11:00:18;7.68;;;5.53;;
14681;SDS011;7429;52.498;13.480;2023-09-08T11:03:25;6.68;;;5.43;;
14681;SDS011;7429;52.498;13.480;2023-09-08T11:06:48;7.30;;;6.53;;
14681;SDS011;7429;52.498;13.480;2023-09-08T11:09:52;6.68;;;6.07;;
14681;SDS011;7429;52.498;13.480;2023-09-08T11:16:40;10.90;;;6.18;;
14681;SDS011;7429;52.498;13.480;2023-09-08T11:19:45;6.32;;;5.72;;
14681;SDS011;7429;52.498;13.480;2023-09-08T11:22:49;7.35;;;5.78;;
14681;SDS011;7429;52.498;13.480;2023-09-08T11:25:53;6.50;;;5.80;;
14681;SDS011;7429;52.498;13.480;2023-09-08T11:29:02;6.95;;;5.95;;
14681;SDS011;7429;52.498;13.480;2023-09-08T11:32:08;6.85;;;6.15;;
14681;SDS011;7429;52.498;13.480;2023-09-08T11:35:12;7.20;;;5.40;;
14681;SDS011;7429;52.498;13.480;2023-09-08T11:38:17;6.20;;;5.60;;
14681;SDS011;7429;52.498;13.480;2023-09-08T11:41:23;6.55;;;5.22;;
14681;SDS011;7429;52.498;13.480;2023-09-08T11:44:34;7.30;;;5.65;;
14681;SDS011;7429;52.498;13.480;2023-09-08T11:47:43;6.60;;;5.93;;
14681;SDS011;7429;52.498;13.480;2023-09-08T11:50:49;6.45;;;4.95;;
14681;SDS011;7429;52.498;13.480;2023-09-08T11:53:56;7.47;;;5.55;;
14681;SDS011;7429;52.498;13.480;2023-09-08T11:57:00;6.10;;;5.50;;
14681;SDS011;7429;52.498;13.480;2023-09-08T12:00:08;6.38;;;5.03;;
14681;SDS011;7429;52.498;13.480;2023-09-08T12:03:19;6.60;;;5.75;;
14681;SDS011;7429;52.498;13.480;2023-09-08T12:06:30;6.63;;;5.88;;
14681;SDS011;7429;52.498;13.480;2023-09-08T12:09:34;8.85;;;5.38;;
14681;SDS011;7429;52.498;13.480;2023-09-08T12:12:44;6.85;;;5.95;;
14681;SDS011;7429;52.498;13.480;2023-09-08T12:15:48;6.18;;;5.57;;
14681;SDS011;7429;52.498;13.480;2023-09-08T12:18:52;8.60;;;5.97;;
14681;SDS011;7429;52.498;13.480;2023-09-08T12:22:10;7.60;;;6.97;;
14681;SDS011;7429;52.498;13.480;2023-09-08T12:25:18;8.18;;;7.35;;
14681;SDS011;7429;52.498;13.480;2023-09-08T12:28:22;6.55;;;5.65;;
14681;SDS011;7429;52.498;13.480;2023-09-08T12:31:30;7.72;;;7.03;;
14681;SDS011;7429;52.498;13.480;2023-09-08T12:34:40;6.57;;;5.05;;
14681;SDS011;7429;52.498;13.480;2023-09-08T12:37:51;6.68;;;5.10;;
14681;SDS011;7429;52.498;13.480;2023-09-08T12:40:57;6.15;;;4.57;;
14681;SDS011;7429;52.498;13.480;2023-09-08T12:44:04;7.00;;;5.35;;
14681;SDS011;7429;52.498;13.480;2023-09-08T12:47:09;6.30;;;5.65;;
14681;SDS011;7429;52.498;13.480;2023-09-08T12:50:15;5.75;;;5.15;;
14681;SDS011;7429;52.498;13.480;2023-09-08T12:53:19;5.22;;;4.72;;
14681;SDS011;7429;52.498;13.480;2023-09-08T12:56:24;9.85;;;5.15;;
14681;SDS011;7429;52.498;13.480;2023-09-08T12:59:27;7.65;;;6.68;;
14681;SDS011;7429;52.498;13.480;2023-09-08T13:02:31;6.47;;;5.88;;
14681;SDS011;7429;52.498;13.480;2023-09-08T13:05:37;7.60;;;4.70;;
14681;SDS011;7429;52.498;13.480;2023-09-08T13:08:44;5.63;;;5.13;;
14681;SDS011;7429;52.498;13.480;2023-09-08T13:11:47;5.07;;;4.57;;
14681;SDS011;7429;52.498;13.480;2023-09-08T13:14:54;6.35;;;5.80;;
14681;SDS011;7429;52.498;13.480;2023-09-08T13:17:57;9.40;;;5.70;;
14681;SDS011;7429;52.498;13.480;2023-09-08T13:21:02;5.68;;;5.13;;
14681;SDS011;7429;52.498;13.480;2023-09-08T13:24:06;6.07;;;4.57;;
14681;SDS011;7429;52.498;13.480;2023-09-08T13:34:27;5.95;;;5.25;;
14681;SDS011;7429;52.498;13.480;2023-09-08T13:37:33;8.02;;;6.20;;
14681;SDS011;7429;52.498;13.480;2023-09-08T13:40:40;6.82;;;5.97;;
14681;SDS011;7429;52.498;13.480;2023-09-08T13:43:44;6.00;;;5.40;;
14681;SDS011;7429;52.498;13.480;2023-09-08T13:46:50;7.68;;;6.93;;
14681;SDS011;7429;52.498;13.480;2023-09-08T13:49:58;11.23;;;9.10;;
14681;SDS011;7429;52.498;13.480;2023-09-08T13:53:07;9.68;;;5.63;;
14681;SDS011;7429;52.498;13.480;2023-09-08T13:56:11;6.35;;;5.03;;
14681;SDS011;7429;52.498;13.480;2023-09-08T13:59:21;5.85;;;5.25;;
14681;SDS011;7429;52.498;13.480;2023-09-08T14:02:27;7.22;;;4.88;;
14681;SDS011;7429;52.498;13.480;2023-09-08T14:05:34;5.25;;;4.68;;
14681;SDS011;7429;52.498;13.480;2023-09-08T14:09:18;9.05;;;4.53;;
14681;SDS011;7429;52.498;13.480;2023-09-08T14:12:44;7.72;;;6.38;;
14681;SDS011;7429;52.498;13.480;2023-09-08T14:15:53;8.35;;;5.93;;
14681;SDS011;7429;52.498;13.480;2023-09-08T14:18:59;8.15;;;5.40;;
14681;SDS011;7429;52.498;13.480;2023-09-08T14:22:15;6.60;;;5.28;;
14681;SDS011;7429;52.498;13.480;2023-09-08T14:25:20;6.47;;;5.35;;
14681;SDS011;7429;52.498;13.480;2023-09-08T14:28:23;5.57;;;4.95;;
14681;SDS011;7429;52.498;13.480;2023-09-08T14:31:27;5.28;;;4.78;;
14681;SDS011;7429;52.498;13.480;2023-09-08T14:34:31;5.82;;;5.22;;
14681;SDS011;7429;52.498;13.480;2023-09-08T14:37:34;7.32;;;5.68;;
14681;SDS011;7429;52.498;13.480;2023-09-08T14:40:40;5.88;;;5.32;;
14681;SDS011;7429;52.498;13.480;2023-09-08T14:43:46;5.80;;;5.18;;
14681;SDS011;7429;52.498;13.480;2023-09-08T14:46:52;5.95;;;5.35;;
14681;SDS011;7429;52.498;13.480;2023-09-08T14:49:56;5.57;;;5.07;;
14681;SDS011;7429;52.498;13.480;2023-09-08T14:53:02;7.03;;;5.20;;
14681;SDS011;7429;52.498;13.480;2023-09-08T14:56:12;6.78;;;6.18;;
14681;SDS011;7429;52.498;13.480;2023-09-08T14:59:19;8.57;;;5.30;;
14681;SDS011;7429;52.498;13.480;2023-09-08T15:02:22;8.13;;;5.25;;
14681;SDS011;7429;52.498;13.480;2023-09-08T15:05:26;5.30;;;4.85;;
14681;SDS011;7429;52.498;13.480;2023-09-08T15:08:50;6.78;;;6.07;;
14681;SDS011;7429;52.498;13.480;2023-09-08T15:12:08;5.72;;;5.13;;
14681;SDS011;7429;52.498;13.480;2023-09-08T15:15:23;9.75;;;5.25;;
14681;SDS011;7429;52.498;13.480;2023-09-08T15:18:52;10.05;;;5.28;;
14681;SDS011;7429;52.498;13.480;2023-09-08T15:22:07;6.80;;;6.20;;
14681;SDS011;7429;52.498;13.480;2023-09-08T15:25:11;7.63;;;6.82;;
14681;SDS011;7429;52.498;13.480;2023-09-08T15:28:16;6.35;;;5.75;;
14681;SDS011;7429;52.498;13.480;2023-09-08T15:31:41;7.57;;;4.90;;
14681;SDS011;7429;52.498;13.480;2023-09-08T15:34:48;5.70;;;5.20;;
14681;SDS011;7429;52.498;13.480;2023-09-08T15:37:59;5.80;;;5.20;;
14681;SDS011;7429;52.498;13.480;2023-09-08T15:41:15;6.15;;;5.30;;
14681;SDS011;7429;52.498;13.480;2023-09-08T15:44:21;8.20;;;6.50;;
14681;SDS011;7429;52.498;13.480;2023-09-08T15:47:30;5.38;;;4.88;;
14681;SDS011;7429;52.498;13.480;2023-09-08T15:51:00;6.55;;;5.57;;
14681;SDS011;7429;52.498;13.480;2023-09-08T15:54:27;5.82;;;5.28;;
14681;SDS011;7429;52.498;13.480;2023-09-08T15:57:44;7.97;;;6.55;;
14681;SDS011;7429;52.498;13.480;2023-09-08T16:00:49;6.38;;;5.78;;
14681;SDS011;7429;52.498;13.480;2023-09-08T16:03:53;7.43;;;6.47;;
14681;SDS011;7429;52.498;13.480;2023-09-08T16:06:56;7.15;;;5.88;;
14681;SDS011;7429;52.498;13.480;2023-09-08T16:09:59;6.78;;;5.55;;
14681;SDS011;7429;52.498;13.480;2023-09-08T16:13:03;7.32;;;5.80;;
14681;SDS011;7429;52.498;13.480;2023-09-08T16:16:15;6.22;;;5.60;;
14681;SDS011;7429;52.498;13.480;2023-09-08T16:19:32;9.00;;;5.97;;
14681;SDS011;7429;52.498;13.480;2023-09-08T16:22:44;6.72;;;5.90;;
14681;SDS011;7429;52.498;13.480;2023-09-08T16:25:47;7.28;;;6.35;;
14681;SDS011;7429;52.498;13.480;2023-09-08T16:28:51;6.57;;;5.97;;
14681;SDS011;7429;52.498;13.480;2023-09-08T16:31:55;7.18;;;6.47;;
14681;SDS011;7429;52.498;13.480;2023-09-08T16:35:00;8.70;;;7.85;;
14681;SDS011;7429;52.498;13.480;2023-09-08T16:38:04;7.22;;;6.53;;
14681;SDS011;7429;52.498;13.480;2023-09-08T16:41:07;6.95;;;6.32;;
14681;SDS011;7429;52.498;13.480;2023-09-08T16:44:17;10.77;;;9.52;;
14681;SDS011;7429;52.498;13.480;2023-09-08T16:47:21;12.77;;;7.22;;
14681;SDS011;7429;52.498;13.480;2023-09-08T16:50:27;8.63;;;7.82;;
14681;SDS011;7429;52.498;13.480;2023-09-08T16:53:30;9.52;;;7.65;;
14681;SDS011;7429;52.498;13.480;2023-09-08T16:56:33;9.23;;;7.78;;
14681;SDS011;7429;52.498;13.480;2023-09-08T16:59:38;8.90;;;7.15;;
14681;SDS011;7429;52.498;13.480;2023-09-08T17:02:51;8.88;;;8.07;;
14681;SDS011;7429;52.498;13.480;2023-09-08T17:05:55;9.15;;;8.35;;
14681;SDS011;7429;52.498;13.480;2023-09-08T17:09:07;9.23;;;7.70;;
14681;SDS011;7429;52.498;13.480;2023-09-08T17:12:14;9.57;;;8.23;;
14681;SDS011;7429;52.498;13.480;2023-09-08T17:15:29;8.45;;;7.47;;
14681;SDS011;7429;52.498;13.480;2023-09-08T17:18:37;9.35;;;7.85;;
14681;SDS011;7429;52.498;13.480;2023-09-08T17:21:45;11.02;;;7.85;;
14681;SDS011;7429;52.498;13.480;2023-09-08T17:25:07;9.48;;;8.27;;
14681;SDS011;7429;52.498;13.480;2023-09-08T17:28:12;10.38;;;8.13;;
14681;SDS011;7429;52.498;13.480;2023-09-08T17:31:19;8.52;;;7.63;;
14681;SDS011;7429;52.498;13.480;2023-09-08T17:34:40;9.10;;;7.60;;
14681;SDS011;7429;52.498;13.480;2023-09-08T17:38:00;11.32;;;7.38;;
14681;SDS011;7429;52.498;13.480;2023-09-08T17:41:08;8.27;;;7.40;;
14681;SDS011;7429;52.498;13.480;2023-09-08T17:44:11;9.75;;;8.85;;
14681;SDS011;7429;52.498;13.480;2023-09-08T17:47:15;9.25;;;8.40;;
14681;SDS011;7429;52.498;13.480;2023-09-08T17:50:20;9.57;;;8.13;;
14681;SDS011;7429;52.498;13.480;2023-09-08T17:53:25;11.27;;;9.00;;
14681;SDS011;7429;52.498;13.480;2023-09-08T17:56:28;10.48;;;8.73;;
14681;SDS011;7429;52.498;13.480;2023-09-08T17:59:31;10.27;;;9.27;;
14681;SDS011;7429;52.498;13.480;2023-09-08T18:02:35;12.40;;;11.15;;
14681;SDS011;7429;52.498;13.480;2023-09-08T18:05:40;12.10;;;10.90;;
14681;SDS011;7429;52.498;13.480;2023-09-08T18:08:43;14.63;;;10.60;;
14681;SDS011;7429;52.498;13.480;2023-09-08T18:11:46;11.13;;;9.95;;
14681;SDS011;7429;52.498;13.480;2023-09-08T18:14:51;10.80;;;9.70;;
14681;SDS011;7429;52.498;13.480;2023-09-08T18:17:57;12.15;;;9.75;;
14681;SDS011;7429;52.498;13.480;2023-09-08T18:21:46;12.20;;;9.32;;
14681;SDS011;7429;52.498;13.480;2023-09-08T18:25:22;16.13;;;10.15;;
14681;SDS011;7429;52.498;13.480;2023-09-08T18:28:37;13.88;;;10.30;;
14681;SDS011;7429;52.498;13.480;2023-09-08T18:40:55;17.08;;;13.77;;
14681;SDS011;7429;52.498;13.480;2023-09-08T18:43:59;22.92;;;16.67;;
14681;SDS011;7429;52.498;13.480;2023-09-08T18:47:02;19.27;;;16.80;;
14681;SDS011;7429;52.498;13.480;2023-09-08T18:50:13;17.67;;;13.95;;
14681;SDS011;7429;52.498;13.480;2023-09-08T18:53:21;18.95;;;15.35;;